createdAt,value
2023-03-21T00:00:44.274Z,7.44
2023-03-21T00:03:11.398Z,7.45
2023-03-21T00:05:42.498Z,7.45
2023-03-21T00:08:09.549Z,7.44
2023-03-21T00:10:42.906Z,7.47
2023-03-21T00:13:13.347Z,7.41
2023-03-21T00:16:03.480Z,7.38
2023-03-21T00:18:37.115Z,7.44
2023-03-21T00:21:37.582Z,7.42
2023-03-21T00:23:52.689Z,7.43
2023-03-21T00:26:19.261Z,7.40
2023-03-21T00:28:45.881Z,7.44
2023-03-21T00:31:12.636Z,7.44
2023-03-21T00:33:39.552Z,7.47
2023-03-21T00:36:07.631Z,7.42
2023-03-21T00:38:35.321Z,7.50
2023-03-21T00:41:18.805Z,7.44
2023-03-21T00:43:47.903Z,7.48
2023-03-21T00:46:14.619Z,7.51
2023-03-21T00:48:41.496Z,7.49
2023-03-21T00:51:26.573Z,7.50
2023-03-21T00:53:58.340Z,7.50
2023-03-21T00:56:25.118Z,7.57
2023-03-21T00:58:51.747Z,7.50
2023-03-21T01:01:19.079Z,7.53
2023-03-21T01:03:48.167Z,7.47
2023-03-21T01:06:19.530Z,7.51
2023-03-21T01:08:52.655Z,7.54
2023-03-21T01:11:25.028Z,7.56
2023-03-21T01:13:59.588Z,7.56
2023-03-21T01:16:31.247Z,7.49
2023-03-21T01:18:59.644Z,7.44
2023-03-21T01:21:26.903Z,7.41
2023-03-21T01:23:53.620Z,7.51
2023-03-21T01:26:23.671Z,7.55
2023-03-21T01:28:50.497Z,7.59
2023-03-21T01:31:18.433Z,7.63
2023-03-21T01:33:45.571Z,7.64
2023-03-21T01:36:21.105Z,7.61
2023-03-21T01:38:49.442Z,7.55
2023-03-21T01:41:42.495Z,7.47
2023-03-21T01:44:18.685Z,7.47
2023-03-21T01:47:03.619Z,7.49
2023-03-21T01:49:41.005Z,7.51
2023-03-21T01:52:18.964Z,7.42
2023-03-21T01:54:54.711Z,7.52
2023-03-21T01:57:40.363Z,7.49
2023-03-21T02:00:15.213Z,7.46
2023-03-21T02:02:52.543Z,7.51
2023-03-21T02:05:27.411Z,7.54
2023-03-21T02:07:54.089Z,7.53
2023-03-21T02:10:21.291Z,7.60
2023-03-21T02:12:48.276Z,7.52
2023-03-21T02:15:16.153Z,7.51
2023-03-21T02:18:25.251Z,7.50
2023-03-21T02:21:01.085Z,7.51
2023-03-21T02:24:03.337Z,7.49
2023-03-21T02:27:03.457Z,7.46
2023-03-21T02:29:58.370Z,7.45
2023-03-21T02:32:37.666Z,7.48
2023-03-21T02:35:08.073Z,7.52
2023-03-21T02:37:43.008Z,7.61
2023-03-21T02:40:35.013Z,7.64
2023-03-21T02:43:23.358Z,7.71
2023-03-21T02:45:57.079Z,7.56
2023-03-21T02:48:44.503Z,7.57
2023-03-21T02:51:21.173Z,7.56
2023-03-21T02:54:16.184Z,7.50
2023-03-21T02:56:43.133Z,7.56
2023-03-21T02:59:10.762Z,7.53
2023-03-21T03:01:37.840Z,7.56
2023-03-21T03:04:04.856Z,7.56
2023-03-21T03:06:45.401Z,7.49
2023-03-21T03:09:39.917Z,7.53
2023-03-21T03:12:41.752Z,7.51
2023-03-21T03:15:11.695Z,7.55
2023-03-21T03:17:53.648Z,7.59
2023-03-21T03:20:30.006Z,7.53
2023-03-21T03:22:59.412Z,7.54
2023-03-21T03:25:41.588Z,7.54
2023-03-21T03:28:11.643Z,7.55
2023-03-21T03:30:46.522Z,7.58
2023-03-21T03:33:17.978Z,7.53
2023-03-21T03:35:53.057Z,7.56
2023-03-21T03:38:31.120Z,7.56
2023-03-21T03:41:12.839Z,7.57
2023-03-21T03:44:01.404Z,7.56
2023-03-21T03:46:33.651Z,7.65
2023-03-21T03:49:15.772Z,7.64
2023-03-21T03:51:56.042Z,7.69
2023-03-21T03:54:30.038Z,7.59
2023-03-21T03:56:57.600Z,7.53
2023-03-21T03:59:25.270Z,7.53
2023-03-21T04:01:52.103Z,7.56
2023-03-21T04:04:18.878Z,7.59
2023-03-21T04:06:51.573Z,7.63
2023-03-21T04:09:22.165Z,7.63
2023-03-21T04:11:51.776Z,7.69
2023-03-21T04:14:18.491Z,7.70
2023-03-21T04:16:45.219Z,7.67
2023-03-21T04:19:12.037Z,7.66
2023-03-21T04:21:39.360Z,7.65
2023-03-21T04:24:07.504Z,7.64
2023-03-21T04:26:35.994Z,7.64
2023-03-21T04:29:03.532Z,7.61
2023-03-21T04:31:31.504Z,7.60
2023-03-21T04:33:59.608Z,7.67
2023-03-21T04:36:30.613Z,7.74
2023-03-21T04:39:01.043Z,7.76
2023-03-21T04:41:31.188Z,7.80
2023-03-21T04:43:57.890Z,7.78
2023-03-21T04:46:24.736Z,7.70
2023-03-21T04:48:51.412Z,7.72
2023-03-21T04:51:18.080Z,7.75
2023-03-21T04:53:46.029Z,7.75
2023-03-21T04:56:13.065Z,7.69
2023-03-21T04:58:40.730Z,7.53
2023-03-21T05:01:08.194Z,7.62
2023-03-21T05:03:40.061Z,7.62
2023-03-21T05:06:08.623Z,7.63
2023-03-21T05:08:38.652Z,7.70
2023-03-21T05:11:05.646Z,7.69
2023-03-21T05:13:32.244Z,7.70
2023-03-21T05:15:58.928Z,7.71
2023-03-21T05:18:26.211Z,7.70
2023-03-21T05:20:54.263Z,7.68
2023-03-21T05:23:24.713Z,7.76
2023-03-21T05:25:51.610Z,7.79
2023-03-21T05:28:21.236Z,7.76
2023-03-21T05:30:47.927Z,7.61
2023-03-21T05:33:14.767Z,7.51
2023-03-21T05:35:41.540Z,7.57
2023-03-21T05:38:08.286Z,7.61
2023-03-21T05:40:34.958Z,7.64
2023-03-21T05:43:01.576Z,7.61
2023-03-21T05:45:28.251Z,7.65
2023-03-21T05:47:54.997Z,7.64
2023-03-21T05:50:21.713Z,7.71
2023-03-21T05:52:48.353Z,7.78
2023-03-21T05:55:14.969Z,7.75
2023-03-21T05:57:41.821Z,7.76
2023-03-21T06:00:09.689Z,7.75
2023-03-21T06:02:36.484Z,7.78
2023-03-21T06:05:03.702Z,7.77
2023-03-21T06:07:30.353Z,7.86
2023-03-21T06:09:57.068Z,7.83
2023-03-21T06:12:23.808Z,7.88
2023-03-21T06:14:50.445Z,7.95
2023-03-21T06:17:17.088Z,8.01
2023-03-21T06:19:43.729Z,8.05
2023-03-21T06:22:10.525Z,8.06
2023-03-21T06:24:37.255Z,8.10
2023-03-21T06:27:04.168Z,8.01
2023-03-21T06:29:31.296Z,8.07
2023-03-21T06:31:58.046Z,8.09
2023-03-21T06:34:24.754Z,8.07
2023-03-21T06:36:52.253Z,8.13
2023-03-21T06:39:19.041Z,8.22
2023-03-21T06:41:45.801Z,8.26
2023-03-21T06:44:12.578Z,8.32
2023-03-21T06:46:39.270Z,8.39
2023-03-21T06:49:05.937Z,8.41
2023-03-21T06:51:33.034Z,8.43
2023-03-21T06:53:59.711Z,8.41
2023-03-21T06:56:26.473Z,8.45
2023-03-21T06:58:53.168Z,8.40
2023-03-21T07:01:20.089Z,8.45
2023-03-21T07:03:47.375Z,8.57
2023-03-21T07:06:14.406Z,8.62
2023-03-21T07:08:41.669Z,8.60
2023-03-21T07:11:09.674Z,8.60
2023-03-21T07:13:36.276Z,8.59
2023-03-21T07:16:03.069Z,8.67
2023-03-21T07:18:31.051Z,8.79
2023-03-21T07:20:58.133Z,8.93
2023-03-21T07:23:27.193Z,8.99
2023-03-21T07:25:54.573Z,8.99
2023-03-21T07:28:22.143Z,9.29
2023-03-21T07:30:57.386Z,9.55
2023-03-21T07:33:24.945Z,9.49
2023-03-21T07:35:53.299Z,9.80
2023-03-21T07:38:20.915Z,10.19
2023-03-21T07:40:48.497Z,10.33
2023-03-21T07:43:16.279Z,10.11
2023-03-21T07:45:44.097Z,10.30
2023-03-21T07:48:13.092Z,10.37
2023-03-21T07:50:40.642Z,10.25
2023-03-21T07:53:07.878Z,10.32
2023-03-21T07:55:37.731Z,10.20
2023-03-21T07:58:04.980Z,10.15
2023-03-21T08:00:31.968Z,10.29
2023-03-21T08:02:59.707Z,10.40
2023-03-21T08:05:35.685Z,10.26
2023-03-21T08:08:03.121Z,10.19
2023-03-21T08:10:29.845Z,10.05
2023-03-21T08:12:56.571Z,10.13
2023-03-21T08:15:23.346Z,10.26
2023-03-21T08:17:49.953Z,10.39
2023-03-21T08:20:22.125Z,10.27
2023-03-21T08:22:49.898Z,10.28
2023-03-21T08:25:18.517Z,10.42
2023-03-21T08:27:46.873Z,10.32
2023-03-21T08:30:16.635Z,10.52
2023-03-21T08:32:43.717Z,10.51
2023-03-21T08:35:13.041Z,10.51
2023-03-21T08:37:42.262Z,10.49
2023-03-21T08:40:13.334Z,10.50
2023-03-21T08:42:44.428Z,10.57
2023-03-21T08:45:12.943Z,10.57
2023-03-21T08:47:40.253Z,10.64
2023-03-21T08:50:08.582Z,10.71
2023-03-21T08:52:35.682Z,10.68
2023-03-21T08:55:02.769Z,10.79
2023-03-21T08:57:30.418Z,10.76
2023-03-21T08:59:57.116Z,10.95
2023-03-21T09:02:24.215Z,10.99
2023-03-21T09:04:53.201Z,11.08
2023-03-21T09:07:20.249Z,11.20
2023-03-21T09:09:53.463Z,11.23
2023-03-21T09:12:20.492Z,11.39
2023-03-21T09:14:47.235Z,11.43
2023-03-21T09:17:14.071Z,11.39
2023-03-21T09:19:40.990Z,11.57
2023-03-21T09:22:11.195Z,11.43
2023-03-21T09:24:38.169Z,11.69
2023-03-21T09:27:04.993Z,11.88
2023-03-21T09:29:32.447Z,11.92
2023-03-21T09:31:59.794Z,12.01
2023-03-21T09:34:26.561Z,12.19
2023-03-21T09:36:56.601Z,12.19
2023-03-21T09:39:24.229Z,12.29
2023-03-21T09:42:04.476Z,12.18
2023-03-21T09:44:37.815Z,12.37
2023-03-21T09:47:20.761Z,12.33
2023-03-21T09:50:14.194Z,12.28
2023-03-21T09:53:16.631Z,11.95
2023-03-21T09:55:44.576Z,11.88
2023-03-21T09:58:32.358Z,11.92
2023-03-21T10:01:44.016Z,12.03
2023-03-21T10:04:16.698Z,12.07
2023-03-21T10:06:45.878Z,12.09
2023-03-21T10:09:22.971Z,12.23
2023-03-21T10:11:54.388Z,12.48
2023-03-21T10:14:25.616Z,12.52
2023-03-21T10:16:58.016Z,12.64
2023-03-21T10:19:25.258Z,12.70
2023-03-21T10:22:00.657Z,12.64
2023-03-21T10:24:29.890Z,12.78
2023-03-21T10:26:57.549Z,12.83
2023-03-21T10:29:28.760Z,12.93
2023-03-21T10:31:56.004Z,13.16
2023-03-21T10:34:46.355Z,13.23
2023-03-21T10:37:14.454Z,13.21
2023-03-21T10:39:47.447Z,13.40
2023-03-21T10:42:26.702Z,13.52
2023-03-21T10:44:56.671Z,13.48
2023-03-21T10:47:28.830Z,13.70
2023-03-21T10:50:11.479Z,13.32
2023-03-21T10:52:51.761Z,13.58
2023-03-21T10:55:25.902Z,13.75
2023-03-21T10:57:57.647Z,14.12
2023-03-21T11:00:29.616Z,14.22
2023-03-21T11:02:58.077Z,14.56
2023-03-21T11:05:35.686Z,14.47
2023-03-21T11:08:18.239Z,14.39
2023-03-21T11:11:04.500Z,14.12
2023-03-21T11:13:40.356Z,14.27
2023-03-21T11:16:41.496Z,14.12
2023-03-21T11:19:14.424Z,13.92
2023-03-21T11:21:41.332Z,14.04
2023-03-21T11:24:14.892Z,13.84
2023-03-21T11:26:44.524Z,14.04
2023-03-21T11:29:45.666Z,14.21
2023-03-21T11:32:20.928Z,13.74
2023-03-21T11:34:51.019Z,14.28
2023-03-21T11:37:22.178Z,14.59
2023-03-21T11:39:56.044Z,14.40
2023-03-21T11:42:40.709Z,14.10
2023-03-21T11:45:28.438Z,14.17
2023-03-21T11:47:58.035Z,13.98
2023-03-21T11:50:40.067Z,14.09
2023-03-21T11:53:27.225Z,14.43
2023-03-21T11:56:04.762Z,14.65
2023-03-21T11:58:58.853Z,14.74
2023-03-21T12:01:35.109Z,14.81
2023-03-21T12:04:11.993Z,14.61
2023-03-21T12:06:52.779Z,14.69
2023-03-21T12:09:31.560Z,14.31
2023-03-21T12:12:38.354Z,13.93
2023-03-21T12:15:06.268Z,14.23
2023-03-21T12:17:57.062Z,14.35
2023-03-21T12:20:30.852Z,14.47
2023-03-21T12:23:24.492Z,14.30
2023-03-21T12:26:00.993Z,14.34
2023-03-21T12:28:40.094Z,14.34
2023-03-21T12:31:18.058Z,14.15
2023-03-21T12:34:12.526Z,13.96
2023-03-21T12:37:09.247Z,13.56
2023-03-21T12:39:39.001Z,13.48
2023-03-21T12:42:31.852Z,13.26
2023-03-21T12:45:16.026Z,13.19
2023-03-21T12:47:46.540Z,13.30
2023-03-21T12:50:24.744Z,13.12
2023-03-21T12:52:56.364Z,13.23
2023-03-21T12:55:34.515Z,13.15
2023-03-21T12:58:11.455Z,13.05
2023-03-21T13:00:43.682Z,13.26
2023-03-21T13:03:39.813Z,13.26
2023-03-21T13:06:10.318Z,13.02
2023-03-21T13:08:46.351Z,13.00
2023-03-21T13:11:21.275Z,12.95
2023-03-21T13:14:24.253Z,12.82
2023-03-21T13:17:04.383Z,12.92
2023-03-21T13:20:07.447Z,12.97
2023-03-21T13:22:34.219Z,12.87
2023-03-21T13:25:20.512Z,12.92
2023-03-21T13:28:03.285Z,12.93
2023-03-21T13:30:32.459Z,12.62
2023-03-21T13:33:07.619Z,12.53
2023-03-21T13:35:41.722Z,12.63
2023-03-21T13:38:24.634Z,12.52
2023-03-21T13:41:17.746Z,12.44
2023-03-21T13:43:54.807Z,12.45
2023-03-21T13:46:34.146Z,12.59
2023-03-21T13:49:10.254Z,12.61
2023-03-21T13:51:36.877Z,12.63
2023-03-21T13:54:16.404Z,12.48
2023-03-21T13:56:46.502Z,12.29
2023-03-21T13:59:19.296Z,12.17
2023-03-21T14:01:58.244Z,12.35
2023-03-21T14:04:36.926Z,12.51
2023-03-21T14:07:26.502Z,12.50
2023-03-21T14:09:57.532Z,12.35
2023-03-21T14:12:27.124Z,12.39
2023-03-21T14:15:06.920Z,12.42
2023-03-21T14:17:37.060Z,12.46
2023-03-21T14:20:14.690Z,12.55
2023-03-21T14:22:41.457Z,12.44
2023-03-21T14:25:15.994Z,12.32
2023-03-21T14:27:45.998Z,12.22
2023-03-21T14:30:22.155Z,12.01
2023-03-21T14:32:48.951Z,12.00
2023-03-21T14:35:15.678Z,11.75
2023-03-21T14:37:46.063Z,11.65
2023-03-21T14:40:27.429Z,11.38
2023-03-21T14:42:55.183Z,11.29
2023-03-21T14:45:21.732Z,11.27
2023-03-21T14:48:05.870Z,11.16
2023-03-21T14:50:55.559Z,10.88
2023-03-21T14:53:26.547Z,11.06
2023-03-21T14:56:00.706Z,10.84
2023-03-21T14:58:28.916Z,10.83
2023-03-21T15:01:01.286Z,10.88
2023-03-21T15:03:28.223Z,10.93
2023-03-21T15:05:55.970Z,10.74
2023-03-21T15:08:28.359Z,10.91
2023-03-21T15:11:08.620Z,10.83
2023-03-21T15:13:46.857Z,10.77
2023-03-21T15:16:16.548Z,10.70
2023-03-21T15:18:45.911Z,10.70
2023-03-21T15:21:16.594Z,10.79
2023-03-21T15:23:46.988Z,10.62
2023-03-21T15:26:19.475Z,10.48
2023-03-21T15:28:48.706Z,10.56
2023-03-21T15:31:24.383Z,10.72
2023-03-21T15:33:53.838Z,10.72
2023-03-21T15:36:33.649Z,10.50
2023-03-21T15:39:06.632Z,10.47
2023-03-21T15:41:33.887Z,10.59
2023-03-21T15:44:14.270Z,10.49
2023-03-21T15:46:47.776Z,10.19
2023-03-21T15:49:17.417Z,10.07
2023-03-21T15:51:55.654Z,10.10
2023-03-21T15:54:41.447Z,10.13
2023-03-21T15:57:23.955Z,10.04
2023-03-21T15:59:54.810Z,10.11
2023-03-21T16:02:26.290Z,10.02
2023-03-21T16:05:20.238Z,9.87
2023-03-21T16:07:47.516Z,9.95
2023-03-21T16:10:30.153Z,9.92
2023-03-21T16:12:56.867Z,9.96
2023-03-21T16:15:25.832Z,10.02
2023-03-21T16:17:56.533Z,9.97
2023-03-21T16:20:25.953Z,9.83
2023-03-21T16:22:52.756Z,9.80
2023-03-21T16:25:19.983Z,9.85
2023-03-21T16:27:47.554Z,9.83
2023-03-21T16:30:16.403Z,9.82
2023-03-21T16:32:42.997Z,9.60
2023-03-21T16:35:11.245Z,9.37
2023-03-21T16:37:38.125Z,9.37
2023-03-21T16:40:26.040Z,9.45
2023-03-21T16:42:52.639Z,9.36
2023-03-21T16:45:19.399Z,9.40
2023-03-21T16:47:47.353Z,9.48
2023-03-21T16:50:41.626Z,9.38
2023-03-21T16:53:09.311Z,9.32
2023-03-21T16:55:37.207Z,9.13
2023-03-21T16:58:05.112Z,9.29
2023-03-21T17:00:32.561Z,9.34
2023-03-21T17:03:08.935Z,9.31
2023-03-21T17:05:35.799Z,9.30
2023-03-21T17:08:02.900Z,9.30
2023-03-21T17:10:31.598Z,9.26
2023-03-21T17:12:58.272Z,9.05
2023-03-21T17:15:25.022Z,8.90
2023-03-21T17:17:52.122Z,8.79
2023-03-21T17:20:30.062Z,8.81
2023-03-21T17:22:56.767Z,8.81
2023-03-21T17:25:23.980Z,8.73
2023-03-21T17:27:53.086Z,8.80
2023-03-21T17:30:31.530Z,8.85
2023-03-21T17:32:58.845Z,8.85
2023-03-21T17:35:26.472Z,8.89
2023-03-21T17:37:54.452Z,8.94
2023-03-21T17:40:30.470Z,8.82
2023-03-21T17:42:58.501Z,8.81
2023-03-21T17:45:25.536Z,8.93
2023-03-21T17:47:52.634Z,8.81
2023-03-21T17:50:20.811Z,8.81
2023-03-21T17:52:50.573Z,8.77
2023-03-21T17:55:19.618Z,8.77
2023-03-21T17:57:46.762Z,8.74
2023-03-21T18:00:23.238Z,8.78
2023-03-21T18:02:50.608Z,8.70
2023-03-21T18:05:18.173Z,8.67
2023-03-21T18:08:08.954Z,8.66
2023-03-21T18:10:32.510Z,8.57
2023-03-21T18:13:00.287Z,8.53
2023-03-21T18:15:30.161Z,8.59
2023-03-21T18:17:57.766Z,8.62
2023-03-21T18:20:44.540Z,8.54
2023-03-21T18:23:14.146Z,8.60
2023-03-21T18:25:41.813Z,8.54
2023-03-21T18:28:11.948Z,8.64
2023-03-21T18:31:00.440Z,8.52
2023-03-21T18:33:27.440Z,8.38
2023-03-21T18:35:59.072Z,8.36
2023-03-21T18:38:27.582Z,8.41
2023-03-21T18:40:55.690Z,8.49
2023-03-21T18:46:09.505Z,8.40
2023-03-21T18:48:36.621Z,8.35
2023-03-21T18:51:03.844Z,8.45
2023-03-21T18:53:30.523Z,8.45
2023-03-21T18:55:57.508Z,8.49
2023-03-21T18:58:25.533Z,8.49
2023-03-21T19:00:53.764Z,8.43
2023-03-21T19:03:35.252Z,8.43
2023-03-21T19:06:04.080Z,8.45
2023-03-21T19:08:31.375Z,8.41
2023-03-21T19:11:00.192Z,8.41
2023-03-21T19:13:30.193Z,8.41
2023-03-21T19:15:57.154Z,8.34
2023-03-21T19:18:49.579Z,8.38
2023-03-21T19:21:10.930Z,8.35
2023-03-21T19:24:07.919Z,8.41
2023-03-21T19:26:28.583Z,8.38
2023-03-21T19:28:56.464Z,8.42
2023-03-21T19:31:24.462Z,8.43
2023-03-21T19:33:51.635Z,8.43
2023-03-21T19:36:22.548Z,8.29
2023-03-21T19:38:50.731Z,8.25
2023-03-21T19:41:18.591Z,8.30
2023-03-21T19:43:54.085Z,8.13
2023-03-21T19:46:25.167Z,8.12
2023-03-21T19:48:56.404Z,8.17
2023-03-21T19:51:28.788Z,8.27
2023-03-21T19:53:56.692Z,8.23
2023-03-21T19:56:26.793Z,8.18
2023-03-21T19:58:55.792Z,8.17
2023-03-21T20:01:24.147Z,8.20
2023-03-21T20:03:51.609Z,8.07
2023-03-21T20:06:18.689Z,8.01
2023-03-21T20:11:33.502Z,8.02
2023-03-21T20:14:03.114Z,8.00
2023-03-21T20:16:35.018Z,8.00
2023-03-21T20:19:04.709Z,8.00
2023-03-21T20:21:41.128Z,8.02
2023-03-21T20:24:13.184Z,8.01
2023-03-21T20:26:44.241Z,7.98
2023-03-21T20:30:03.914Z,7.96
2023-03-21T20:31:57.738Z,8.01
2023-03-21T20:34:24.601Z,8.03
2023-03-21T20:36:51.666Z,8.05
2023-03-21T20:39:18.409Z,8.00
2023-03-21T20:41:45.214Z,8.01
2023-03-21T20:44:42.225Z,8.02
2023-03-21T20:47:00.623Z,8.02
2023-03-21T20:49:28.374Z,8.06
2023-03-21T20:54:43.547Z,8.05
2023-03-21T20:57:10.259Z,8.04
2023-03-21T20:59:36.936Z,8.05
2023-03-21T21:02:03.825Z,8.04
2023-03-21T21:04:52.900Z,8.04
2023-03-21T21:07:20.387Z,8.04
2023-03-21T21:09:48.101Z,8.06
2023-03-21T21:12:16.495Z,8.12
2023-03-21T21:14:44.169Z,8.06
2023-03-21T21:17:28.365Z,8.07
2023-03-21T21:19:58.162Z,8.02
2023-03-21T21:22:24.949Z,7.94
2023-03-21T21:24:51.954Z,7.91
2023-03-21T21:27:18.697Z,7.91
2023-03-21T21:29:47.764Z,7.94
2023-03-21T21:32:17.057Z,7.92
2023-03-21T21:34:43.774Z,7.83
2023-03-21T21:37:10.712Z,7.78
2023-03-21T21:39:38.711Z,7.78
2023-03-21T21:42:05.820Z,7.81
2023-03-21T21:44:32.504Z,7.78
2023-03-21T21:46:59.797Z,7.78
2023-03-21T21:49:27.009Z,7.73
2023-03-21T21:51:53.701Z,7.74
2023-03-21T21:54:20.391Z,7.75
2023-03-21T21:56:54.265Z,7.80
2023-03-21T21:59:22.236Z,7.81
2023-03-21T22:01:51.501Z,7.77
2023-03-21T22:04:24.865Z,7.75
2023-03-21T22:06:52.094Z,7.71
2023-03-21T22:09:18.990Z,7.70
2023-03-21T22:11:45.994Z,7.64
2023-03-21T22:14:12.861Z,7.64
2023-03-21T22:16:39.670Z,7.64
2023-03-21T22:19:06.407Z,7.67
2023-03-21T22:21:33.120Z,7.69
2023-03-21T22:23:59.785Z,7.74
2023-03-21T22:26:26.600Z,7.72
2023-03-21T22:28:53.278Z,7.71
2023-03-21T22:31:20.073Z,7.76
2023-03-21T22:33:48.707Z,7.73
2023-03-21T22:36:15.556Z,7.77
2023-03-21T22:38:43.965Z,7.81
2023-03-21T22:41:10.939Z,7.80
2023-03-21T22:43:37.653Z,7.76
2023-03-21T22:46:05.541Z,7.75
2023-03-21T22:48:32.759Z,7.81
2023-03-21T22:51:00.185Z,7.85
2023-03-21T22:53:27.033Z,7.97
2023-03-21T22:55:54.149Z,7.97
2023-03-21T22:58:21.066Z,7.88
2023-03-21T23:00:48.058Z,7.89
2023-03-21T23:03:16.827Z,7.86
2023-03-21T23:05:44.817Z,7.80
2023-03-21T23:08:11.942Z,7.78
2023-03-21T23:10:40.666Z,7.94
2023-03-21T23:13:07.682Z,7.85
2023-03-21T23:15:34.545Z,7.85
2023-03-21T23:18:01.270Z,7.87
2023-03-21T23:20:28.034Z,7.85
2023-03-21T23:22:55.439Z,7.80
2023-03-21T23:25:22.220Z,7.74
2023-03-21T23:27:48.969Z,7.76
2023-03-21T23:30:15.789Z,7.84
2023-03-21T23:32:42.608Z,7.84
2023-03-21T23:35:10.329Z,7.80
2023-03-21T23:37:37.540Z,7.70
2023-03-21T23:40:08.903Z,7.70
2023-03-21T23:42:36.378Z,7.69
2023-03-21T23:45:03.127Z,7.64
2023-03-21T23:47:31.163Z,7.63
2023-03-21T23:49:57.977Z,7.60
2023-03-21T23:52:24.656Z,7.59
2023-03-21T23:54:51.368Z,7.70
2023-03-21T23:57:18.146Z,7.64
2023-03-21T23:59:46.902Z,7.59
